Aérodrome :
LOGIN :

S'inscrire | Disclaimer

   EN    FR    IT 

 










Légende :    VFR   VFR Marginal   IFR   IFR Intensif   IFR Très Intensif
Visi : 
Plafond : 
>= 8 km
>= 3000ft
5 à 8 km
1000 à 3000 ft
1500m à 5 km
500 à 1000 ft
800 à 1500m
200 à 500 ft
< 800m
< 200 ft
Symboles :   Orages  Brouillard  Fortes neiges  Fortes précipitations  Vent > 20 kt
SIGMETs :   Divers  Orages  Givrage  Turbulence  Onde Orograph.  Cendres Volcan.







- Altitude de l'aérodrome : 72 ft
- Code IATA : UDE


EHVK - Volkel Airbase

DERNIER METAR :
  • 242055Z AUTO 26004KT 9999 NCD 05/01 Q1025 BLU

METARs EXPIRÉS :
  • 242025Z AUTO 27004KT 9999 NCD 05/01 Q1025 BLU
  • 241955Z AUTO 28004KT 260V320 9999 NCD 06/01 Q1025 BLU
  • 241925Z AUTO 29004KT 260V320 9999 NCD 07/01 Q1025 BLU
  • 241855Z AUTO 29004KT 9999 NCD 07/02 Q1026 BLU
  • 241825Z AUTO 30003KT 270V330 9999 NCD 07/00 Q1026 BLU

TAF TAF EHVK
Valide du 24 à 18h jusqu'au 25 à 06h UTC


241745Z 2418/2506 31007KT CAVOK
BECMG 2419/2421 24006KT
TEMPO 2501/2505 FEW010 SCT015CB BKN018
BECMG 2502/2504 30012KT
Pas de NOTAMs connus pour ce terrain.



MET'MAP, la Météo Aéronautique d'un coup d'oeil ! - Copyright ORBIFLY Décembre 2007 - Disclaimer

ORBIFLY MET'MAP TEAM :

Programmation & Développement : Alexandra Zaïnal
Conception & Développement : Baudouin d'Aumeries
Co-Programmation & Développement : Marc-Olivier Méhu
Soutien technique & logistique : Manuel Goepfert

Contact : metmap@orbifly.com




SOURCES & CREDITS :

   NOAA